Portada
METAR-TAF:

METAR-TAF

Aeroports :

Làrnaca, Xipre

latitud: 34-53N, longitud: 033-38E, altitud: 2 m

Observació

L'informe es va fer fa 30 minuts, a les 04:30 UTC
Vent 5 kt del Nord/Nord-Oest
Temperatura 22°C
Humitat 100%
Pressió 1013 hPa
Visibilitat: 7000 m
Escasses núvols a una alçada de 2000 ft

METAR: LCLK 200430Z 34005KT 7000 FEW020 22/22 Q1013 NOSIG

Hora: 08:00 (05:00 UTC)

Pronòstic

L'informe es va fer fa 5 hores i 30 minuts, a les 23:30 UTC
Pronòstic vàlid del 20 a les 00 UTC al 20 a les 24 UTC
Vent 6 kt del Nord/Nord-Oest
Visibilitat 10 km o més
Escasses núvols a una alçada de 2500 ft
Probabilitat 30%
l' 20 a les 00 UTC al 20 a les 24 UTC
Visibilitat: 5000 m
Pols estès
Evolucionant progressivament
l' 20 a les 09 UTC al 20 a les 13 UTC
Vent 10 kt del Sud/Sud-Oest
Evolucionant progressivament
l' 20 a les 16 UTC al 20 a les 19 UTC
Vent 6 kt del Nord-Oest

TAF: LCLK 192330Z 2000/2024 33006KT 9999 FEW025 PROB30 2000/2024 5000 DU BECMG 2009/2013 20010KT BECMG 2016/2019 32006KT

Observacions i pronòstics meteorològics de més de 4000 aeroports (METAR i TAF).

Les estacions disponibles són els punts grocs i vermells al mapa.

Posi el ratolí al punt desitjat per veure el nom de l'estació.

Feu clic per veure les observacions i els pronòstics meteorològics.

Per canviar el mapa: feu clic els botons verds amb una creu de color negre per apropar; al botó verd amb un guió per allunyar la imatge; o en les fletxes verdes per a mapes adjacents.


METAR-TAF: